Weather at Spanish Fork-Springville-Woodhouse Field Airport

Public forecast

Using degrees Fahrenheit for public forecast. Weather courtesy of forecast.io.

Closest aviation weather report (METAR) to Spanish Fork-Springville-Woodhouse Field Airport

Closest report is Provo Municipal Airport, 5.1 nm (9.5 km) NNW. Retrieved 2021/01/16 01:56 UTC (28 minutes ago):

KPVU 160156Z 00000KT 10SM CLR 00/M10 A3033 RMK AO2 SLP304 T00001100

Closest aviation forecast (TAF) to Spanish Fork-Springville-Woodhouse Field Airport

Closest forecast is Provo Municipal Airport, 5.1 nm (9.5 km) NNW. Retrieved 2021-01-16 00:33 UTC (2 hours ago):

TAF KPVU 152330Z 1600/1624 31004KT P6SM BKN180 FM160900 VRB04KT P6SM SCT060 BKN100 FM161200 33004KT P6SM SCT080 SCT150 FM161500 33008KT P6SM FEW200